KMOR/MOR METAR and TAF weather

Enter ICAO airport designator
Station Type Date Time Source
KMOR METAR 2020/07/03 14:35 UTC NOAA

KMOR 031435Z AUTO 00000KT 10SM CLR 27/19 A3004 RMK A01


Station Type Date Time Source
KMOR Decoded METAR 2020/07/03 14:35 UTC NOAA

Station name not available
Jul 03, 2020 - 10:35 AM EDT / 2020.07.03 1435 UTC
Wind: Calm:0
Visibility: 10 mile(s):0
Sky conditions: clear
Temperature: 80 F (27 C)
Dew Point: 66 F (19 C)
Relative Humidity: 61%
Pressure (altimeter): 30.04 in. Hg (1017 hPa)
ob: KMOR 031435Z AUTO 00000KT 10SM CLR 27/19 A3004 RMK A01
cycle: 14

Station Type Date Time Source
KMOR TAF UTC NOAA

Error!

Example: see airport list